Time;durP1;ratioP1;P1;durP2;ratioP2;P2;SDS_P1;SDS_P2;PMS_P1;PMS_P2;Temp;Humidity;BMP_temperature;BMP_pressure;BME280_temperature;BME280_humidity;BME280_pressure;Samples;Min_cycle;Max_cycle;Signal;HPM_P1;HPM_P2
2022/07/06 04:22:37;;;;;;;14.10;9.10;;;;;;;14.10;93.36;100956.47;5109449;27;20364;-69
2022/07/06 04:25:03;;;;;;;9.75;7.30;;;;;;;14.10;92.98;100945.75;5109403;28;20515;-70
2022/07/06 04:27:29;;;;;;;13.20;9.32;;;;;;;14.20;93.15;100965.06;5108181;28;20039;-70
2022/07/06 04:29:54;;;;;;;11.60;7.45;;;;;;;14.21;92.08;100960.53;5108980;28;20047;-70
2022/07/06 04:32:20;;;;;;;13.82;9.50;;;;;;;14.30;92.93;100957.63;5108560;28;20031;-71
2022/07/06 04:34:46;;;;;;;8.55;7.30;;;;;;;14.29;92.48;100955.16;5108002;28;20040;-71
2022/07/06 04:37:12;;;;;;;8.50;7.10;;;;;;;14.35;91.38;100960.63;5108377;28;20046;-71
2022/07/06 04:39:37;;;;;;;10.50;6.55;;;;;;;14.45;89.80;100954.97;5107830;28;20602;-71
2022/07/06 04:42:03;;;;;;;10.07;6.70;;;;;;;14.49;89.31;100956.34;5107801;28;20135;-71
2022/07/06 04:44:28;;;;;;;10.95;7.03;;;;;;;14.61;88.54;100968.28;5107766;28;20130;-71
2022/07/06 04:46:54;;;;;;;9.15;6.10;;;;;;;14.69;87.43;100969.22;5107728;28;20038;-71
2022/07/06 04:49:20;;;;;;;8.18;6.47;;;;;;;14.81;87.49;100965.09;5107338;28;20137;-71
2022/07/06 04:51:46;;;;;;;6.55;3.90;;;;;;;14.90;83.65;100974.69;5107710;28;20050;-71
2022/07/06 04:54:11;;;;;;;6.03;4.03;;;;;;;15.05;81.58;100972.00;5107534;28;20488;-71
2022/07/06 04:56:37;;;;;;;4.60;3.95;;;;;;;15.15;81.03;100967.22;5107563;28;20055;-71
2022/07/06 04:59:03;;;;;;;7.38;3.85;;;;;;;15.29;80.08;100971.75;5107249;28;20547;-71
2022/07/06 05:01:29;;;;;;;5.15;3.58;;;;;;;15.40;78.60;100973.94;5107693;28;20055;-71
2022/07/06 05:03:54;;;;;;;6.18;4.68;;;;;;;15.55;79.33;100976.59;5107428;28;20081;-71
2022/07/06 05:06:22;;;;;;;6.25;4.07;;;;;;;15.66;77.55;100978.03;5107345;28;20082;-71
2022/07/06 05:08:47;;;;;;;4.78;3.60;;;;;;;15.77;76.68;100979.34;5108436;28;20067;-71
2022/07/06 05:11:13;;;;;;;7.47;4.40;;;;;;;15.88;76.34;100984.25;5107306;28;20549;-71
2022/07/06 05:13:40;;;;;;;6.15;3.60;;;;;;;15.97;75.19;100983.09;5107201;28;20401;-71
2022/07/06 05:16:06;;;;;;;6.90;3.38;;;;;;;16.02;74.43;100975.31;5107082;28;20046;-70
2022/07/06 05:18:31;;;;;;;9.57;4.05;;;;;;;16.10;74.17;100975.16;5107215;28;20040;-71
2022/07/06 05:20:58;;;;;;;5.75;3.80;;;;;;;16.25;74.45;100985.88;5106979;28;20036;-71
2022/07/06 05:23:24;;;;;;;5.72;3.78;;;;;;;16.32;73.98;100981.38;5107094;28;20039;-71
2022/07/06 05:25:49;;;;;;;5.90;3.95;;;;;;;16.31;73.46;100979.72;5107134;28;20028;-71
2022/07/06 05:28:15;;;;;;;6.13;3.40;;;;;;;16.36;73.64;100974.59;5106795;28;20044;-71
2022/07/06 05:30:41;;;;;;;8.57;3.80;;;;;;;16.41;73.68;100985.59;5089751;28;20039;-71
2022/07/06 05:33:07;;;;;;;6.40;3.65;;;;;;;16.48;73.64;100986.47;5097732;28;20165;-70
2022/07/06 05:35:33;;;;;;;6.80;3.50;;;;;;;16.48;72.01;100982.97;5093175;28;20040;-70
2022/07/06 05:38:00;;;;;;;4.90;3.10;;;;;;;16.52;71.78;100977.00;5076621;28;20032;-70
2022/07/06 05:40:26;;;;;;;5.88;3.17;;;;;;;16.58;71.47;100980.78;5092798;28;20054;-70
2022/07/06 05:42:53;;;;;;;9.48;3.67;;;;;;;16.62;70.46;100992.78;5093061;28;20032;-70
2022/07/06 05:45:19;;;;;;;8.35;4.00;;;;;;;16.65;70.85;100986.22;5094246;28;20035;-70
2022/07/06 05:50:31;;;;;;;6.80;4.05;;;;;;;16.57;70.97;100989.06;5092951;28;20036;-70
2022/07/06 05:53:00;;;;;;;4.85;3.00;;;;;;;16.64;70.67;100989.94;5093214;28;20427;-62
2022/07/06 05:55:27;;;;;;;5.03;3.38;;;;;;;16.75;70.66;100986.72;5092589;28;20492;-59
2022/07/06 05:57:55;;;;;;;5.22;3.25;;;;;;;16.74;70.47;100985.06;5091815;28;20126;-60
2022/07/06 06:00:26;;;;;;;4.40;3.53;;;;;;;16.81;69.01;100994.00;5092416;28;20035;-59
2022/07/06 06:02:54;;;;;;;6.05;3.60;;;;;;;16.87;68.67;100998.59;5092707;28;20044;-59
2022/07/06 06:05:21;;;;;;;9.98;4.03;;;;;;;17.03;67.92;100992.94;5092580;28;20088;-56
2022/07/06 06:07:50;;;;;;;5.50;3.22;;;;;;;17.14;67.36;101001.47;5092574;28;20035;-58
2022/07/06 06:10:18;;;;;;;5.43;3.22;;;;;;;17.01;66.78;100997.66;5092216;28;20044;-52
2022/07/06 06:12:45;;;;;;;;;;;;;;;17.23;66.45;101003.81;5093069;28;20040;-52
2022/07/06 06:15:11;;;;;;;5.35;3.53;;;;;;;17.20;66.80;101001.50;5092320;28;19918;-54
2022/07/06 06:17:37;;;;;;;7.57;3.28;;;;;;;17.30;67.13;101004.69;5092428;28;20062;-57
2022/07/06 06:20:06;;;;;;;8.82;3.35;;;;;;;17.30;66.77;101004.69;5092059;28;20039;-55
2022/07/06 06:22:43;;;;;;;5.55;2.72;;;;;;;17.38;66.76;101013.63;5093574;28;20031;-53
2022/07/06 06:25:09;;;;;;;6.07;3.53;;;;;;;17.29;65.91;101003.03;5093489;28;20032;-55
2022/07/06 06:27:34;;;;;;;6.97;3.55;;;;;;;17.43;66.69;101005.78;5093637;28;20065;-52
2022/07/06 06:29:59;;;;;;;8.15;3.95;;;;;;;17.50;66.41;101012.88;5093272;28;20047;-55
2022/07/06 06:32:25;;;;;;;7.93;3.70;;;;;;;17.49;65.41;101013.91;5093414;28;20043;-57
2022/07/06 06:34:50;;;;;;;6.60;3.08;;;;;;;17.54;65.59;101011.44;5093344;28;20044;-53
2022/07/06 06:37:16;;;;;;;4.05;2.95;;;;;;;17.64;65.54;101009.19;5093316;28;20055;-62
2022/07/06 06:39:41;;;;;;;4.65;3.20;;;;;;;17.73;65.70;101009.03;5093094;28;20031;-61
2022/07/06 06:42:07;;;;;;;4.70;3.20;;;;;;;17.72;65.39;101013.59;5093206;28;20043;-61
2022/07/06 06:44:33;;;;;;;6.35;3.50;;;;;;;17.74;64.51;101011.56;5090864;28;20119;-62
2022/07/06 06:46:58;;;;;;;7.25;3.30;;;;;;;17.83;65.19;101013.03;5093107;28;20097;-62
2022/07/06 06:49:24;;;;;;;4.93;2.78;;;;;;;17.93;65.96;101018.06;5092763;28;20032;-62
2022/07/06 06:51:49;;;;;;;6.10;3.33;;;;;;;17.96;65.10;101019.50;5093170;28;20105;-61
2022/07/06 06:54:15;;;;;;;6.50;3.03;;;;;;;17.93;66.06;101015.34;5093172;28;20538;-59
2022/07/06 06:56:40;;;;;;;6.80;3.15;;;;;;;17.98;64.32;101017.41;5091695;28;20537;-61
2022/07/06 06:59:06;;;;;;;5.97;3.67;;;;;;;17.74;64.15;101016.94;5092609;28;20032;-61
2022/07/06 07:01:32;;;;;;;4.82;3.13;;;;;;;17.83;64.12;101017.59;5092792;28;20067;-61
2022/07/06 07:03:58;;;;;;;5.50;3.33;;;;;;;17.91;65.08;101014.72;5092904;28;20028;-62
2022/07/06 07:06:23;;;;;;;10.20;3.00;;;;;;;17.95;65.26;101010.59;5092661;28;20032;-59
2022/07/06 07:08:49;;;;;;;4.22;2.90;;;;;;;18.00;65.67;101005.44;5092394;28;20035;-60
2022/07/06 07:11:14;;;;;;;3.95;2.78;;;;;;;18.12;64.41;101014.53;5092733;28;20519;-62
2022/07/06 07:13:40;;;;;;;4.75;2.88;;;;;;;18.20;65.30;101012.72;5092674;28;20036;-62
2022/07/06 07:16:05;;;;;;;5.22;3.10;;;;;;;18.16;64.57;101006.91;5092621;28;20515;-61
2022/07/06 07:18:31;;;;;;;6.00;2.90;;;;;;;18.25;65.08;100999.44;5092171;28;20047;-62
2022/07/06 07:20:57;;;;;;;3.55;2.58;;;;;;;18.29;63.89;101012.31;5092286;28;20477;-61
2022/07/06 07:23:22;;;;;;;5.15;2.70;;;;;;;18.47;64.54;101008.19;5092621;28;20032;-62
2022/07/06 07:25:48;;;;;;;8.48;4.03;;;;;;;18.47;63.02;101002.78;5092397;28;20093;-60
2022/07/06 07:28:13;;;;;;;6.18;3.17;;;;;;;18.58;62.96;101003.00;5092354;28;20071;-61
2022/07/06 07:30:38;;;;;;;5.22;2.88;;;;;;;18.67;63.51;101004.47;5092281;28;20036;-62
2022/07/06 07:33:04;;;;;;;5.88;3.20;;;;;;;18.71;62.35;101007.59;5092377;28;20047;-61
2022/07/06 07:35:29;;;;;;;7.32;3.15;;;;;;;18.63;62.03;101003.19;5092203;28;20020;-60
2022/07/06 07:37:55;;;;;;;5.35;3.10;;;;;;;18.76;62.89;101001.56;5092240;28;20044;-61
2022/07/06 07:40:21;;;;;;;4.38;3.03;;;;;;;18.84;62.24;101007.56;5091889;28;20493;-62
2022/07/06 07:42:46;;;;;;;5.35;3.08;;;;;;;18.93;61.65;101008.22;5092250;28;20040;-62
2022/07/06 07:45:12;;;;;;;4.25;2.72;;;;;;;18.93;62.32;101002.81;5092095;28;20043;-63
2022/07/06 07:47:38;;;;;;;3.47;2.70;;;;;;;18.97;61.20;100994.09;5092199;28;20067;-63
2022/07/06 07:50:05;;;;;;;6.00;3.15;;;;;;;19.07;61.48;100999.03;5091643;28;20031;-60
2022/07/06 07:52:31;;;;;;;4.83;3.40;;;;;;;18.86;60.83;101002.00;5092010;28;20474;-60
2022/07/06 07:54:56;;;;;;;6.25;3.03;;;;;;;19.06;61.31;101008.19;5091898;28;20040;-61
2022/07/06 07:57:21;;;;;;;6.05;2.70;;;;;;;19.17;60.81;101004.00;5091776;28;20065;-61
2022/07/06 07:59:47;;;;;;;5.57;2.88;;;;;;;19.24;60.48;100999.44;5091642;28;20075;-60
2022/07/06 08:02:12;;;;;;;7.32;3.10;;;;;;;19.25;60.25;100993.81;5091867;28;20038;-62
2022/07/06 08:04:38;;;;;;;4.35;3.30;;;;;;;19.09;59.66;100993.41;5091881;28;20051;-61
2022/07/06 08:07:03;;;;;;;8.57;3.40;;;;;;;19.11;60.15;100994.06;5090571;28;20051;-62
2022/07/06 08:09:29;;;;;;;6.28;3.05;;;;;;;19.24;60.18;100994.84;5091502;28;20040;-59
2022/07/06 08:11:54;;;;;;;5.82;3.13;;;;;;;19.40;59.62;100998.13;5091755;28;20078;-62
2022/07/06 08:14:19;;;;;;;7.60;2.92;;;;;;;19.40;59.39;100998.94;5091679;28;20046;-62
2022/07/06 08:16:45;;;;;;;5.60;2.83;;;;;;;19.48;58.76;101001.41;5091783;28;20133;-63
2022/07/06 08:19:14;;;;;;;6.38;2.95;;;;;;;19.67;58.95;100999.69;5091424;28;20107;-63
2022/07/06 08:21:40;;;;;;;9.25;2.72;;;;;;;19.81;58.56;100999.63;5091628;28;20131;-61
2022/07/06 08:24:06;;;;;;;4.32;2.67;;;;;;;19.87;57.66;100994.19;5091758;28;20131;-61
2022/07/06 08:26:32;;;;;;;6.20;3.13;;;;;;;20.01;58.53;100990.38;5091609;28;20028;-62
2022/07/06 08:28:58;;;;;;;3.70;3.25;;;;;;;20.09;56.51;100992.00;5091310;28;20123;-61
2022/07/06 08:31:23;;;;;;;7.55;3.25;;;;;;;20.15;57.38;100992.97;5091572;28;20062;-62
2022/07/06 08:33:48;;;;;;;5.10;3.00;;;;;;;20.31;56.50;100996.00;5091541;28;20040;-61
2022/07/06 08:36:14;;;;;;;3.88;3.15;;;;;;;20.26;56.09;100998.53;5091743;28;20039;-62
2022/07/06 08:38:40;;;;;;;4.85;2.80;;;;;;;20.49;56.50;100995.28;5091202;28;20032;-62
2022/07/06 08:41:06;;;;;;;4.97;3.05;;;;;;;20.50;55.59;100986.13;5091536;28;20036;-62
2022/07/06 08:43:34;;;;;;;6.57;3.53;;;;;;;20.74;55.25;100992.56;5090275;28;20052;-62
2022/07/06 08:46:01;;;;;;;5.75;3.10;;;;;;;20.79;54.40;100998.13;5091467;28;20036;-63
2022/07/06 08:48:27;;;;;;;7.85;3.33;;;;;;;20.66;53.51;100998.25;5091029;28;20131;-62
2022/07/06 08:50:54;;;;;;;7.50;3.10;;;;;;;20.92;54.37;101002.59;5091521;28;20060;-62
2022/07/06 08:53:20;;;;;;;5.55;3.05;;;;;;;20.86;52.37;101006.19;5091520;28;20024;-62
2022/07/06 08:55:47;;;;;;;8.77;2.97;;;;;;;21.03;52.93;100995.63;5091223;28;20064;-61
2022/07/06 08:58:13;;;;;;;7.35;3.38;;;;;;;21.10;52.65;101005.34;5091168;28;20032;-62
2022/07/06 09:00:40;;;;;;;5.18;2.80;;;;;;;20.94;51.90;101008.63;5091005;28;20392;-62
2022/07/06 09:03:06;;;;;;;3.58;3.10;;;;;;;21.18;52.55;101008.81;5091690;28;20052;-62
2022/07/06 09:05:33;;;;;;;8.82;3.25;;;;;;;21.01;51.79;101009.41;5091252;28;20047;-62
2022/07/06 09:07:59;;;;;;;4.75;3.22;;;;;;;21.14;52.44;101003.03;5092799;28;20044;-61
2022/07/06 09:10:26;;;;;;;7.75;3.00;;;;;;;21.30;51.51;101010.56;5094871;28;20047;-62
2022/07/06 09:12:51;;;;;;;7.18;3.33;;;;;;;21.19;51.48;101008.59;5095111;28;20042;-62
2022/07/06 09:15:16;;;;;;;4.30;2.83;;;;;;;21.16;50.60;101008.19;5094750;28;20506;-62
2022/07/06 09:17:43;;;;;;;3.50;2.72;;;;;;;21.47;51.51;101007.28;5094885;28;20034;-63
2022/07/06 09:20:13;;;;;;;4.28;2.70;;;;;;;21.61;50.49;101011.47;5094648;28;20123;-63
2022/07/06 09:22:39;;;;;;;5.80;3.25;;;;;;;21.42;50.23;101007.13;5094951;28;20059;-62
2022/07/06 09:25:13;;;;;;;6.85;2.90;;;;;;;21.47;50.16;101010.81;5094806;28;20036;-65
2022/07/06 09:27:41;;;;;;;4.57;2.67;;;;;;;21.80;51.03;101010.38;5094757;28;20040;-59
2022/07/06 09:30:08;;;;;;;6.32;3.15;;;;;;;22.01;49.61;101019.91;5094377;28;20063;-53
2022/07/06 09:32:47;;;;;;;4.18;3.15;;;;;;;22.16;49.24;101014.09;5094672;28;20020;-52
2022/07/06 09:35:26;;;;;;;7.07;3.05;;;;;;;22.44;53.43;101016.19;5094547;28;20036;-59
2022/07/06 09:38:13;;;;;;;4.78;2.50;;;;;;;22.86;50.67;101016.97;5094663;28;20346;-60
2022/07/06 09:40:40;;;;;;;5.00;2.33;;;;;;;22.82;48.13;101012.19;5094532;28;20039;-56
2022/07/06 09:43:14;;;;;;;4.93;2.95;;;;;;;22.72;47.02;101013.63;5094350;28;20028;-55
2022/07/06 09:45:45;;;;;;;2.95;2.50;;;;;;;22.78;47.83;101025.44;5094373;28;20040;-56
2022/07/06 09:48:13;;;;;;;5.05;3.28;;;;;;;22.74;46.68;101026.94;5092997;28;20035;-56
2022/07/06 09:50:46;;;;;;;4.40;2.50;;;;;;;22.72;46.64;101015.50;5094110;28;20046;-54
2022/07/06 09:53:13;;;;;;;5.50;2.80;;;;;;;22.86;46.17;101019.69;5094296;28;20036;-56
2022/07/06 09:55:43;;;;;;;4.85;2.55;;;;;;;23.09;45.78;101018.03;5094350;28;20055;-56
2022/07/06 09:58:09;;;;;;;7.57;2.75;;;;;;;23.26;46.93;101019.78;5094136;28;20043;-52
2022/07/06 10:00:34;;;;;;;6.47;2.20;;;;;;;23.62;46.81;101023.28;5093829;28;20032;-56
2022/07/06 10:03:01;;;;;;;5.93;2.53;;;;;;;23.41;44.11;101022.00;5092914;28;20047;-58
2022/07/06 10:05:29;;;;;;;5.55;2.53;;;;;;;23.73;45.88;101019.69;5093963;28;20032;-53
2022/07/06 10:07:58;;;;;;;3.63;2.13;;;;;;;23.96;44.66;101016.06;5094048;28;20101;-58
2022/07/06 10:10:29;;;;;;;4.35;2.40;;;;;;;23.93;42.72;101010.28;5093698;28;20036;-56
2022/07/06 10:12:56;;;;;;;4.95;2.35;;;;;;;23.77;44.20;101023.59;5093785;28;20127;-56
2022/07/06 10:15:31;;;;;;;;;;;;;;;23.95;43.91;101017.13;5094211;28;20113;-61
2022/07/06 10:17:58;;;;;;;5.30;2.65;;;;;;;24.12;44.75;101011.72;5093798;28;19916;-56
2022/07/06 10:20:27;;;;;;;5.10;2.73;;;;;;;24.45;44.67;101019.16;5093334;28;20047;-55
2022/07/06 10:22:54;;;;;;;3.88;2.53;;;;;;;24.89;43.03;101017.41;5093711;28;20032;-56
2022/07/06 10:25:21;;;;;;;3.50;2.20;;;;;;;24.87;43.89;101021.47;5093670;28;20074;-58
2022/07/06 10:27:47;;;;;;;4.75;2.35;;;;;;;24.74;43.24;101019.91;5093605;28;20039;-61
2022/07/06 10:30:15;;;;;;;4.82;2.63;;;;;;;24.71;40.89;101030.47;5093190;28;20036;-56
2022/07/06 10:32:43;;;;;;;6.68;3.47;;;;;;;24.44;41.96;101031.09;5093951;28;20050;-53
2022/07/06 10:35:09;;;;;;;;;;;;;;;24.40;42.75;101024.53;5093873;28;20110;-59
2022/07/06 10:37:34;;;;;;;4.30;2.60;;;;;;;24.21;41.84;101018.44;5093433;28;20411;-57
2022/07/06 10:42:59;;;;;;;2.58;2.05;;;;;;;23.97;42.34;101020.44;5084622;28;20055;-57
2022/07/06 10:45:27;;;;;;;3.40;2.47;;;;;;;23.59;42.84;101010.13;5093112;28;20127;-58
2022/07/06 10:48:17;;;;;;;6.07;2.50;;;;;;;24.16;44.71;101009.34;5093025;28;20047;-57
2022/07/06 10:50:49;;;;;;;6.45;2.38;;;;;;;24.39;42.22;101006.53;5092899;28;20036;-59
2022/07/06 10:53:25;;;;;;;4.35;2.25;;;;;;;24.16;43.87;101001.19;5092252;28;20138;-60
2022/07/06 10:55:53;;;;;;;4.68;2.22;;;;;;;24.36;43.68;101002.41;5092805;28;20115;-60
2022/07/06 10:58:53;;;;;;;2.60;2.00;;;;;;;24.21;43.65;101002.09;5092001;28;20133;-61
2022/07/06 11:01:21;;;;;;;3.97;2.38;;;;;;;23.68;44.25;101006.00;5090067;28;20040;-61
2022/07/06 11:03:48;;;;;;;4.47;2.50;;;;;;;23.98;46.47;101005.75;5091536;28;20036;-61
2022/07/06 11:06:16;;;;;;;3.97;2.25;;;;;;;24.43;43.25;100999.50;5091834;28;20035;-60
2022/07/06 11:08:45;;;;;;;4.57;2.22;;;;;;;24.63;43.99;101001.75;5092461;28;20497;-61
2022/07/06 11:11:19;;;;;;;4.75;2.22;;;;;;;24.65;43.04;100999.63;5092804;28;20426;-60
2022/07/06 11:13:51;;;;;;;5.05;2.20;;;;;;;24.16;45.40;100979.41;5091381;28;20497;-61
2022/07/06 11:16:18;;;;;;;3.15;2.17;;;;;;;24.38;44.43;100990.44;5092518;28;20420;-64
2022/07/06 11:18:59;;;;;;;3.80;2.20;;;;;;;24.38;47.42;100991.25;5092462;28;20040;-63
2022/07/06 11:21:41;;;;;;;4.60;2.30;;;;;;;25.23;42.58;100979.19;5092400;28;20392;-63
2022/07/06 11:24:12;;;;;;;3.47;2.33;;;;;;;25.85;40.58;100978.88;5092594;28;20452;-62
2022/07/06 11:26:38;;;;;;;3.53;2.00;;;;;;;26.68;40.25;100990.31;5092318;28;20123;-63
2022/07/06 11:29:06;;;;;;;4.82;1.98;;;;;;;27.26;40.08;100985.78;5092069;28;20020;-62
2022/07/06 11:31:37;;;;;;;5.13;2.33;;;;;;;26.99;38.90;100976.81;5091977;28;20032;-63
2022/07/06 11:34:04;;;;;;;4.07;2.30;;;;;;;26.44;42.24;100986.28;5092338;28;20127;-62
2022/07/06 11:36:30;;;;;;;;;;;;;;;26.16;41.01;100981.94;5092632;28;20032;-63
2022/07/06 11:38:55;;;;;;;3.83;1.75;;;;;;;25.70;41.89;100978.69;5091818;28;19939;-63
2022/07/06 11:41:20;;;;;;;4.25;2.13;;;;;;;25.09;44.56;100976.03;5092060;28;20093;-63
2022/07/06 11:43:50;;;;;;;3.08;1.98;;;;;;;25.25;41.80;100976.25;5092239;28;20116;-62
2022/07/06 11:46:34;;;;;;;3.55;2.22;;;;;;;26.06;41.74;100971.72;5092235;28;20039;-63
2022/07/06 11:49:07;;;;;;;2.25;1.92;;;;;;;26.60;40.69;100968.91;5091834;28;20043;-63
2022/07/06 11:51:35;;;;;;;3.42;2.00;;;;;;;26.58;40.19;100962.09;5092040;28;20066;-63
2022/07/06 11:54:07;;;;;;;2.40;1.90;;;;;;;27.13;40.37;100963.56;5092140;28;20395;-62
2022/07/06 11:56:34;;;;;;;2.83;1.90;;;;;;;27.53;36.63;100968.38;5092070;28;20105;-62
2022/07/06 11:59:00;;;;;;;2.22;1.98;;;;;;;28.39;37.10;100954.84;5091775;28;20036;-63
2022/07/06 12:01:28;;;;;;;5.32;1.98;;;;;;;28.51;37.34;100965.53;5091827;28;20396;-63
2022/07/06 12:03:58;;;;;;;3.00;1.95;;;;;;;28.80;36.75;100954.78;5091858;28;20053;-63
2022/07/06 12:06:25;;;;;;;3.75;1.95;;;;;;;27.83;35.58;100956.69;5091749;28;20053;-63
2022/07/06 12:08:56;;;;;;;3.63;1.60;;;;;;;28.65;39.34;100963.06;5091532;28;20562;-63
2022/07/06 12:11:31;;;;;;;3.05;1.83;;;;;;;29.15;35.84;100950.34;5090572;28;20039;-63
2022/07/06 12:13:59;;;;;;;3.97;1.83;;;;;;;29.14;35.19;100943.19;5091823;28;20112;-63
2022/07/06 12:16:36;;;;;;;2.85;1.80;;;;;;;29.53;35.38;100950.75;5090435;28;20493;-63
2022/07/06 12:19:04;;;;;;;2.50;1.50;;;;;;;29.16;33.20;100944.59;5091530;28;20544;-63
2022/07/06 12:21:30;;;;;;;3.97;1.95;;;;;;;29.36;34.83;100945.59;5091546;28;20035;-63
2022/07/06 12:23:56;;;;;;;4.93;1.63;;;;;;;29.94;33.29;100943.91;5091636;28;20040;-63
2022/07/06 12:26:25;;;;;;;2.72;1.55;;;;;;;29.95;33.09;100937.31;5091609;28;20130;-63
2022/07/06 12:29:09;;;;;;;5.57;1.75;;;;;;;29.50;32.68;100923.84;5091349;28;20044;-63
2022/07/06 12:31:39;;;;;;;4.80;1.85;;;;;;;29.00;34.58;100933.94;5091563;28;20044;-63
2022/07/06 12:34:12;;;;;;;3.92;1.50;;;;;;;28.26;34.42;100933.47;5091970;28;20423;-63
2022/07/06 12:36:47;;;;;;;1.95;1.75;;;;;;;28.30;34.96;100934.56;5091528;28;20435;-63
2022/07/06 12:39:14;;;;;;;3.63;2.10;;;;;;;28.82;36.87;100929.84;5091135;28;20036;-63
2022/07/06 12:41:48;;;;;;;2.85;1.92;;;;;;;28.71;35.24;100928.25;5091625;28;20020;-63
2022/07/06 12:44:15;;;;;;;2.72;1.60;;;;;;;28.83;34.74;100924.09;5095311;28;20064;-63
2022/07/06 12:46:41;;;;;;;2.38;1.60;;;;;;;29.57;34.87;100930.69;5095501;28;20047;-63
2022/07/06 12:49:16;;;;;;;3.17;1.40;;;;;;;30.12;33.40;100914.13;5095252;28;20092;-63
2022/07/06 12:51:56;;;;;;;2.17;1.25;;;;;;;29.76;33.59;100922.63;5095470;28;20036;-64
2022/07/06 12:54:23;;;;;;;3.63;1.50;;;;;;;29.73;32.58;100917.69;5094149;28;20028;-64
2022/07/06 12:57:30;;;;;;;2.45;1.48;;;;;;;29.99;32.89;100921.91;5095424;28;20035;-63
2022/07/06 12:59:57;;;;;;;2.03;1.42;;;;;;;29.48;33.36;100912.34;5082682;28;20083;-63
2022/07/06 13:02:25;;;;;;;3.20;1.33;;;;;;;29.92;32.77;100907.66;5094072;28;20032;-64
2022/07/06 13:04:54;;;;;;;4.40;1.58;;;;;;;29.71;31.70;100917.97;5095293;28;20040;-63
2022/07/06 13:07:20;;;;;;;1.60;1.50;;;;;;;30.32;32.55;100913.13;5095140;28;20055;-63
2022/07/06 13:09:45;;;;;;;2.63;1.52;;;;;;;30.48;32.51;100909.13;5094891;28;20082;-63
2022/07/06 13:12:11;;;;;;;4.75;1.40;;;;;;;31.31;31.47;100916.19;5094997;28;20036;-63
2022/07/06 13:14:36;;;;;;;1.60;1.27;;;;;;;31.25;31.87;100909.13;5095154;28;20032;-63
2022/07/06 13:17:02;;;;;;;5.30;1.67;;;;;;;30.53;32.39;100920.06;5094862;28;20127;-63
2022/07/06 13:19:28;;;;;;;5.07;1.67;;;;;;;30.39;32.65;100908.94;5094719;28;20039;-63
2022/07/06 13:21:53;;;;;;;4.77;1.53;;;;;;;29.59;33.54;100913.94;5094829;28;20116;-64
2022/07/06 13:24:18;;;;;;;2.60;1.65;;;;;;;29.01;34.61;100908.16;5093703;28;20047;-63
2022/07/06 13:26:44;;;;;;;3.00;1.33;;;;;;;28.32;32.43;100918.72;5094858;28;20032;-63
2022/07/06 13:29:10;;;;;;;2.30;1.25;;;;;;;27.67;34.92;100909.31;5093152;28;20067;-63
2022/07/06 13:31:37;;;;;;;1.73;1.30;;;;;;;27.59;35.18;100904.38;5094590;28;20033;-63
2022/07/06 13:34:02;;;;;;;1.80;1.23;;;;;;;27.18;34.06;100901.50;5094731;28;20036;-63
2022/07/06 13:36:28;;;;;;;2.10;1.30;;;;;;;26.91;34.34;100903.53;5094536;28;20098;-63
2022/07/06 13:38:53;;;;;;;2.88;1.13;;;;;;;27.19;35.49;100903.16;5094243;28;20119;-63
2022/07/06 13:41:18;;;;;;;2.17;1.33;;;;;;;26.95;35.41;100896.47;5094522;28;20443;-63
2022/07/06 13:43:44;;;;;;;5.68;1.50;;;;;;;26.60;35.65;100900.63;5094558;28;20074;-63
2022/07/06 13:46:10;;;;;;;2.85;1.25;;;;;;;26.56;36.70;100899.53;5094217;28;20080;-64
2022/07/06 13:48:36;;;;;;;1.60;1.10;;;;;;;26.57;35.67;100882.03;5094259;28;20123;-65
2022/07/06 13:51:02;;;;;;;2.65;1.23;;;;;;;26.52;35.98;100882.00;5094307;28;20525;-61
2022/07/06 13:53:27;;;;;;;1.70;1.20;;;;;;;26.63;36.89;100883.72;5093993;28;20040;-60
2022/07/06 13:55:53;;;;;;;1.40;1.30;;;;;;;26.41;36.93;100880.31;5094518;28;20044;-55
2022/07/06 13:58:19;;;;;;;1.30;1.20;;;;;;;25.97;36.06;100881.31;5094112;28;20036;-58
2022/07/06 14:00:45;;;;;;;2.73;1.33;;;;;;;26.11;36.99;100870.78;5093943;28;20031;-54
2022/07/06 14:03:10;;;;;;;1.65;1.27;;;;;;;26.00;36.60;100871.78;5094071;28;20040;-52
2022/07/06 14:05:36;;;;;;;2.03;1.30;;;;;;;26.05;39.10;100865.53;5093995;28;20035;-51
2022/07/06 14:08:01;;;;;;;4.15;1.55;;;;;;;26.31;38.28;100864.63;5093719;28;20080;-52
2022/07/06 14:10:27;;;;;;;1.98;1.23;;;;;;;26.14;38.23;100880.34;5093766;28;20450;-63
2022/07/06 14:12:53;;;;;;;1.63;1.20;;;;;;;26.02;36.04;100876.97;5093900;28;20040;-63
2022/07/06 14:15:18;;;;;;;1.85;1.20;;;;;;;26.04;37.88;100870.19;5093775;28;20058;-63
2022/07/06 14:17:44;;;;;;;3.45;1.33;;;;;;;25.59;35.86;100860.47;5093838;28;20044;-63
2022/07/06 14:20:11;;;;;;;2.00;1.10;;;;;;;25.60;35.76;100864.84;5093402;28;20127;-63
2022/07/06 14:22:36;;;;;;;2.53;1.30;;;;;;;25.56;36.61;100858.28;5093726;28;20032;-63
2022/07/06 14:25:02;;;;;;;1.23;1.10;;;;;;;25.23;39.06;100861.16;5093646;28;20429;-63
2022/07/06 14:27:28;;;;;;;1.80;1.27;;;;;;;25.28;37.64;100858.50;5093590;28;20500;-63
2022/07/06 14:29:53;;;;;;;3.50;2.15;;;;;;;24.97;37.69;100860.81;5093123;28;20048;-63
2022/07/06 14:32:19;;;;;;;1.90;1.40;;;;;;;25.09;36.30;100872.47;5093493;28;20038;-63
2022/07/06 14:34:45;;;;;;;1.85;1.10;;;;;;;25.00;36.12;100854.06;5093435;28;20051;-63
2022/07/06 14:37:10;;;;;;;1.42;1.00;;;;;;;25.02;35.71;100855.44;5092038;28;20086;-63
2022/07/06 14:39:36;;;;;;;2.03;1.20;;;;;;;25.23;38.94;100858.44;5093190;28;20436;-65
2022/07/06 14:42:01;;;;;;;1.63;1.08;;;;;;;25.36;38.71;100860.75;5093387;28;20032;-63
2022/07/06 14:44:27;;;;;;;1.55;1.10;;;;;;;25.10;36.24;100854.19;5093263;28;20495;-64
2022/07/06 14:46:52;;;;;;;2.05;1.20;;;;;;;25.15;37.24;100849.63;5093209;28;20099;-64
2022/07/06 14:49:18;;;;;;;2.15;1.30;;;;;;;25.12;35.31;100847.44;5092856;28;20039;-65
2022/07/06 14:51:44;;;;;;;2.13;1.20;;;;;;;25.07;37.27;100852.00;5093271;28;20040;-63
2022/07/06 14:54:09;;;;;;;1.83;1.10;;;;;;;24.91;36.74;100850.97;5093124;28;20398;-64
2022/07/06 14:56:35;;;;;;;1.55;1.20;;;;;;;24.76;36.51;100843.41;5093003;28;20044;-62
2022/07/06 14:59:00;;;;;;;3.88;1.70;;;;;;;24.57;37.10;100845.59;5092649;28;20036;-63
2022/07/06 15:01:26;;;;;;;2.38;1.27;;;;;;;24.51;36.53;100845.78;5092891;28;20028;-63
2022/07/06 15:03:51;;;;;;;1.70;1.10;;;;;;;24.32;36.68;100832.44;5091649;28;20036;-63
2022/07/06 15:06:17;;;;;;;1.23;1.13;;;;;;;24.40;36.95;100833.94;5091936;28;20039;-63
2022/07/06 15:08:43;;;;;;;1.80;1.25;;;;;;;24.57;37.38;100837.44;5092611;28;20174;-62
2022/07/06 15:11:08;;;;;;;2.00;1.15;;;;;;;24.55;37.46;100822.44;5092695;28;20501;-62
2022/07/06 15:13:34;;;;;;;2.63;1.33;;;;;;;24.68;37.24;100827.50;5092597;28;20623;-63
2022/07/06 15:15:59;;;;;;;1.75;1.45;;;;;;;24.53;35.63;100821.88;5091742;28;20173;-63
2022/07/06 15:18:25;;;;;;;2.33;1.35;;;;;;;24.59;36.32;100823.59;5091212;28;20047;-63
2022/07/06 15:20:51;;;;;;;3.03;1.73;;;;;;;24.65;35.97;100817.13;5092446;28;20035;-63
2022/07/06 15:23:16;;;;;;;2.58;1.40;;;;;;;24.72;35.96;100811.50;5091329;28;20040;-63
2022/07/06 15:25:42;;;;;;;2.08;1.77;;;;;;;24.74;36.16;100820.22;5092505;28;20469;-63
2022/07/06 15:28:07;;;;;;;2.47;1.40;;;;;;;24.66;36.86;100809.78;5091045;28;20044;-63
2022/07/06 15:30:33;;;;;;;1.70;1.25;;;;;;;24.74;37.07;100812.06;5092499;28;20038;-63
2022/07/06 15:32:59;;;;;;;3.72;1.15;;;;;;;24.68;36.40;100805.72;5092434;28;20047;-63
2022/07/06 15:35:25;;;;;;;3.03;1.20;;;;;;;24.84;35.67;100798.53;5092379;28;20107;-63
2022/07/06 15:37:50;;;;;;;2.92;1.38;;;;;;;24.71;35.02;100798.94;5092432;28;20089;-64
2022/07/06 15:40:21;;;;;;;3.90;1.58;;;;;;;24.72;36.34;100803.31;5092083;28;20040;-62
2022/07/06 15:42:46;;;;;;;2.08;1.50;;;;;;;24.61;35.15;100794.19;5092227;28;20039;-63
2022/07/06 15:45:12;;;;;;;2.53;1.35;;;;;;;24.67;34.13;100795.09;5092066;28;20036;-62
2022/07/06 15:47:39;;;;;;;1.70;1.30;;;;;;;24.50;34.08;100795.94;5092140;28;20032;-63
2022/07/06 15:50:05;;;;;;;2.33;1.40;;;;;;;24.53;35.42;100795.47;5090747;28;20420;-62
2022/07/06 15:52:31;;;;;;;6.70;2.20;;;;;;;24.48;34.83;100786.41;5091932;28;20060;-63
2022/07/06 15:54:56;;;;;;;2.55;1.27;;;;;;;24.64;35.56;100790.94;5092159;28;20078;-63